createdAt,value
2019-03-15T00:01:12.424Z,8.97
2019-03-15T00:03:41.561Z,9.50
2019-03-15T00:06:10.851Z,7.77
2019-03-15T00:08:39.979Z,15.03
2019-03-15T00:11:09.034Z,9.40
2019-03-15T00:13:38.538Z,9.17
2019-03-15T00:16:07.874Z,11.00
2019-03-15T00:18:37.050Z,10.50
2019-03-15T00:21:06.224Z,7.27
2019-03-15T00:23:35.432Z,10.37
2019-03-15T00:26:04.528Z,6.97
2019-03-15T00:28:33.638Z,7.83
2019-03-15T00:31:02.738Z,6.20
2019-03-15T00:33:31.861Z,6.13
2019-03-15T00:36:00.951Z,8.07
2019-03-15T00:38:30.064Z,6.50
2019-03-15T00:40:59.248Z,5.80
2019-03-15T00:43:28.343Z,6.20
2019-03-15T00:45:57.414Z,7.23
2019-03-15T00:48:26.552Z,7.20
2019-03-15T00:50:55.659Z,8.03
2019-03-15T00:53:24.787Z,7.70
2019-03-15T00:55:53.955Z,6.90
2019-03-15T00:58:23.117Z,6.17
2019-03-15T01:00:52.190Z,7.00
2019-03-15T01:03:21.278Z,7.13
2019-03-15T01:05:50.400Z,5.23
2019-03-15T01:08:19.511Z,7.13
2019-03-15T01:10:48.728Z,7.13
2019-03-15T01:13:17.802Z,6.43
2019-03-15T01:15:46.903Z,5.70
2019-03-15T01:18:15.991Z,7.63
2019-03-15T01:20:45.079Z,7.93
2019-03-15T01:23:14.324Z,5.10
2019-03-15T01:25:43.431Z,5.37
2019-03-15T01:28:12.583Z,5.30
2019-03-15T01:30:41.697Z,4.07
2019-03-15T01:33:10.787Z,6.83
2019-03-15T01:35:39.961Z,5.30
2019-03-15T01:38:09.143Z,7.07
2019-03-15T01:40:38.948Z,9.53
2019-03-15T01:43:08.103Z,6.03
2019-03-15T01:45:37.233Z,6.10
2019-03-15T01:48:06.301Z,7.07
2019-03-15T01:50:35.418Z,6.57
2019-03-15T01:53:04.549Z,11.27
2019-03-15T01:55:33.659Z,8.63
2019-03-15T01:58:02.749Z,11.00
2019-03-15T02:00:32.086Z,6.97
2019-03-15T02:03:02.511Z,11.50
2019-03-15T02:05:31.820Z,13.23
2019-03-15T02:08:00.941Z,9.00
2019-03-15T02:10:30.066Z,11.27
2019-03-15T02:12:59.377Z,11.83
2019-03-15T02:15:28.475Z,10.47
2019-03-15T02:17:57.601Z,11.43
2019-03-15T02:20:27.338Z,10.00
2019-03-15T02:22:56.470Z,13.63
2019-03-15T02:25:25.565Z,9.83
2019-03-15T02:27:54.570Z,8.90
2019-03-15T02:30:23.678Z,9.53
2019-03-15T02:32:52.845Z,10.10
2019-03-15T02:35:21.898Z,10.77
2019-03-15T02:37:50.965Z,11.43
2019-03-15T02:40:20.079Z,13.87
2019-03-15T02:42:49.110Z,10.77
2019-03-15T02:45:18.294Z,8.40
2019-03-15T02:47:47.666Z,11.47
2019-03-15T02:50:16.830Z,11.23
2019-03-15T02:52:45.941Z,11.57
2019-03-15T02:55:15.031Z,8.37
2019-03-15T02:57:44.133Z,11.13
2019-03-15T03:00:13.901Z,9.43
2019-03-15T03:02:43.103Z,9.13
2019-03-15T03:05:12.247Z,10.90
2019-03-15T03:07:41.337Z,11.53
2019-03-15T03:10:10.425Z,9.30
2019-03-15T03:12:39.502Z,14.30
2019-03-15T03:15:08.649Z,12.20
2019-03-15T03:17:37.832Z,7.90
2019-03-15T03:20:06.965Z,12.13
2019-03-15T03:22:36.595Z,12.93
2019-03-15T03:25:06.086Z,12.10
2019-03-15T03:27:35.259Z,8.57
2019-03-15T03:30:04.818Z,9.77
2019-03-15T03:32:33.967Z,14.23
2019-03-15T03:35:03.188Z,10.90
2019-03-15T03:37:32.342Z,10.57
2019-03-15T03:40:02.301Z,8.03
2019-03-15T03:42:31.750Z,12.50
2019-03-15T03:45:00.861Z,11.87
2019-03-15T03:47:32.544Z,9.83
2019-03-15T03:50:00.665Z,9.13
2019-03-15T03:52:29.761Z,10.10
2019-03-15T03:54:58.835Z,9.83
2019-03-15T03:57:27.945Z,6.50
2019-03-15T03:59:56.991Z,10.53
2019-03-15T04:02:26.077Z,11.07
2019-03-15T04:04:55.831Z,7.13
2019-03-15T04:07:25.014Z,8.40
2019-03-15T04:09:54.077Z,9.60
2019-03-15T04:12:23.196Z,11.17
2019-03-15T04:14:52.295Z,8.07
2019-03-15T04:17:21.394Z,11.20
2019-03-15T04:19:50.691Z,10.10
2019-03-15T04:22:19.885Z,6.30
2019-03-15T04:24:48.949Z,7.10
2019-03-15T04:27:18.027Z,8.67
2019-03-15T04:29:47.147Z,11.27
2019-03-15T04:32:16.253Z,6.57
2019-03-15T04:34:45.343Z,10.37
2019-03-15T04:37:14.439Z,11.10
2019-03-15T04:39:43.515Z,6.47
2019-03-15T04:42:12.619Z,10.00
2019-03-15T04:44:41.621Z,9.37
2019-03-15T04:47:10.746Z,10.20
2019-03-15T04:49:39.835Z,7.73
2019-03-15T04:52:08.991Z,10.27
2019-03-15T04:54:37.993Z,11.37
2019-03-15T04:57:07.118Z,5.90
2019-03-15T04:59:36.233Z,6.90
2019-03-15T05:02:05.323Z,6.50
2019-03-15T05:04:34.390Z,9.23
2019-03-15T05:07:03.506Z,8.53
2019-03-15T05:09:32.644Z,7.97
2019-03-15T05:12:01.774Z,8.07
2019-03-15T05:14:30.895Z,5.50
2019-03-15T05:17:00.000Z,9.83
2019-03-15T05:19:28.987Z,5.77
2019-03-15T05:21:58.066Z,7.37
2019-03-15T05:24:27.150Z,7.17
2019-03-15T05:26:56.290Z,7.00
2019-03-15T05:29:25.295Z,8.47
2019-03-15T05:31:54.432Z,6.27
2019-03-15T05:34:23.486Z,6.93
2019-03-15T05:36:52.617Z,7.27
2019-03-15T05:39:21.763Z,7.17
2019-03-15T05:41:50.844Z,8.00
2019-03-15T05:44:20.214Z,8.60
2019-03-15T05:46:49.388Z,5.93
2019-03-15T05:49:18.478Z,8.80
2019-03-15T05:51:47.634Z,10.80
2019-03-15T05:54:16.726Z,6.60
2019-03-15T05:56:45.856Z,6.27
2019-03-15T05:59:14.904Z,8.27
2019-03-15T06:01:43.999Z,9.67
2019-03-15T06:04:13.032Z,6.90
2019-03-15T06:06:42.145Z,6.03
2019-03-15T06:09:11.239Z,6.67
2019-03-15T06:11:40.329Z,6.70
2019-03-15T06:14:09.424Z,8.30
2019-03-15T06:16:38.619Z,5.83
2019-03-15T06:19:07.711Z,5.70
2019-03-15T06:21:36.834Z,7.57
2019-03-15T06:24:05.932Z,6.47
2019-03-15T06:26:35.005Z,6.43
2019-03-15T06:29:04.165Z,5.80
2019-03-15T06:31:33.261Z,6.37
2019-03-15T06:34:02.381Z,5.10
2019-03-15T06:36:31.499Z,5.53
2019-03-15T06:39:00.547Z,5.37
2019-03-15T06:41:29.657Z,5.50
2019-03-15T06:43:58.746Z,7.60
2019-03-15T06:46:27.813Z,6.97
2019-03-15T06:48:56.843Z,5.33
2019-03-15T06:51:25.964Z,5.87
2019-03-15T06:53:55.175Z,6.30
2019-03-15T06:56:24.285Z,6.40
2019-03-15T06:58:53.423Z,4.43
2019-03-15T07:01:22.541Z,6.60
2019-03-15T07:03:51.683Z,5.20
2019-03-15T07:06:20.772Z,4.53
2019-03-15T07:08:49.912Z,6.23
2019-03-15T07:11:18.983Z,4.20
2019-03-15T07:13:48.721Z,5.77
2019-03-15T07:16:17.867Z,3.67
2019-03-15T07:18:46.901Z,6.20
2019-03-15T07:21:16.003Z,3.67
2019-03-15T07:23:45.129Z,3.93
2019-03-15T07:26:14.363Z,6.80
2019-03-15T07:28:43.549Z,5.17
2019-03-15T07:31:12.630Z,4.10
2019-03-15T07:33:41.839Z,4.37
2019-03-15T07:36:11.018Z,3.70
2019-03-15T07:38:40.109Z,4.57
2019-03-15T07:41:09.191Z,3.20
2019-03-15T07:43:38.292Z,4.63
2019-03-15T07:46:07.403Z,5.00
2019-03-15T07:48:36.479Z,4.17
2019-03-15T07:51:05.565Z,3.53
2019-03-15T07:53:35.521Z,4.10
2019-03-15T07:56:05.027Z,2.63
2019-03-15T07:58:34.138Z,2.93
2019-03-15T08:01:03.254Z,2.47
2019-03-15T08:03:32.398Z,3.23
2019-03-15T08:06:01.518Z,3.50
2019-03-15T08:08:30.716Z,3.30
2019-03-15T08:10:59.818Z,3.00
2019-03-15T08:13:28.947Z,3.20
2019-03-15T08:15:58.157Z,3.33
2019-03-15T08:18:27.283Z,3.10
2019-03-15T08:20:56.432Z,2.80
2019-03-15T08:23:25.597Z,4.17
2019-03-15T08:25:54.737Z,3.00
2019-03-15T08:28:23.865Z,2.13
2019-03-15T08:30:52.967Z,2.90
2019-03-15T08:33:22.124Z,3.23
2019-03-15T08:35:51.205Z,2.87
2019-03-15T08:38:20.417Z,2.40
2019-03-15T08:40:49.615Z,2.30
2019-03-15T08:43:18.760Z,3.13
2019-03-15T08:45:47.891Z,2.57
2019-03-15T08:48:17.917Z,2.70
2019-03-15T08:50:49.101Z,2.47
2019-03-15T08:53:18.247Z,2.40
2019-03-15T08:55:47.389Z,3.37
2019-03-15T08:58:21.900Z,2.47
2019-03-15T09:00:47.371Z,1.90
2019-03-15T09:03:27.075Z,1.67
2019-03-15T09:05:47.291Z,1.80
2019-03-15T09:08:16.425Z,1.90
2019-03-15T09:10:45.496Z,2.27
2019-03-15T09:13:14.680Z,2.40
2019-03-15T09:15:43.837Z,2.00
2019-03-15T09:18:12.921Z,2.27
2019-03-15T09:20:42.096Z,2.20
2019-03-15T09:23:11.205Z,2.43
2019-03-15T09:25:40.307Z,2.13
2019-03-15T09:28:09.418Z,3.00
2019-03-15T09:30:38.541Z,1.97
2019-03-15T09:33:07.705Z,1.90
2019-03-15T09:35:36.806Z,1.93
2019-03-15T09:38:05.924Z,1.50
2019-03-15T09:40:35.057Z,1.70
2019-03-15T09:43:04.202Z,1.73
2019-03-15T09:45:33.321Z,1.83
2019-03-15T09:48:02.391Z,3.30
2019-03-15T09:50:40.003Z,1.60
2019-03-15T09:53:05.662Z,1.77
2019-03-15T09:55:33.690Z,2.23
2019-03-15T09:58:02.832Z,1.70
2019-03-15T10:00:31.995Z,1.87
2019-03-15T10:03:01.128Z,3.03
2019-03-15T10:05:30.274Z,2.60
2019-03-15T10:07:59.421Z,2.60
2019-03-15T10:10:28.609Z,3.40
2019-03-15T10:13:05.941Z,2.27
2019-03-15T10:15:28.626Z,3.37
2019-03-15T10:17:57.766Z,3.60
2019-03-15T10:20:26.886Z,2.47
2019-03-15T10:23:05.509Z,3.37
2019-03-15T10:25:26.831Z,3.17
2019-03-15T10:27:56.414Z,4.77
2019-03-15T10:30:25.552Z,3.73
2019-03-15T10:32:54.660Z,3.00
2019-03-15T10:35:23.806Z,3.60
2019-03-15T10:37:53.210Z,3.10
2019-03-15T10:40:22.743Z,2.87
2019-03-15T10:42:55.233Z,4.07
2019-03-15T10:45:22.698Z,4.50
2019-03-15T10:47:51.822Z,2.80
2019-03-15T10:50:21.050Z,4.17
2019-03-15T10:52:53.550Z,3.03
2019-03-15T10:55:21.081Z,3.80
2019-03-15T10:57:50.230Z,2.93
2019-03-15T11:00:19.800Z,3.17
2019-03-15T11:02:48.981Z,5.10
2019-03-15T11:05:18.170Z,3.40
2019-03-15T11:07:47.294Z,5.37
2019-03-15T11:10:16.479Z,10.23
2019-03-15T11:12:52.358Z,11.10
2019-03-15T11:15:21.476Z,7.60
2019-03-15T11:17:50.572Z,6.73
2019-03-15T11:20:19.670Z,6.20
2019-03-15T11:22:48.802Z,5.63
2019-03-15T11:25:17.886Z,5.23
2019-03-15T11:27:47.039Z,4.67
2019-03-15T11:30:16.264Z,3.40
2019-03-15T11:32:45.422Z,2.93
2019-03-15T11:35:14.544Z,4.83
2019-03-15T11:37:43.654Z,3.30
2019-03-15T11:40:14.100Z,2.53
2019-03-15T11:42:43.598Z,5.03
2019-03-15T11:45:12.857Z,2.20
2019-03-15T11:48:01.260Z,4.47
2019-03-15T11:50:12.883Z,2.60
2019-03-15T11:52:41.989Z,3.47
2019-03-15T11:55:11.277Z,4.37
2019-03-15T11:57:40.389Z,2.87
2019-03-15T12:00:10.792Z,3.17
2019-03-15T12:02:39.999Z,2.90
2019-03-15T12:05:09.075Z,3.93
2019-03-15T12:07:38.163Z,6.20
2019-03-15T12:10:07.407Z,2.87
2019-03-15T12:12:36.493Z,3.67
2019-03-15T12:15:06.526Z,3.63
2019-03-15T12:17:35.754Z,3.83
2019-03-15T12:20:05.374Z,3.63
2019-03-15T12:22:34.512Z,2.40
2019-03-15T12:25:03.625Z,2.70
2019-03-15T12:27:32.801Z,3.20
2019-03-15T12:30:01.953Z,2.27
2019-03-15T12:32:31.045Z,2.53
2019-03-15T12:35:00.411Z,2.20
2019-03-15T12:37:29.562Z,2.07
2019-03-15T12:39:58.828Z,3.97
2019-03-15T12:42:27.949Z,3.87
2019-03-15T12:44:57.020Z,4.60
2019-03-15T12:47:26.056Z,3.43
2019-03-15T12:49:55.174Z,3.50
2019-03-15T12:52:24.365Z,2.60
2019-03-15T12:54:53.454Z,3.50
2019-03-15T12:57:22.547Z,3.07
2019-03-15T12:59:51.619Z,3.93
2019-03-15T13:02:20.848Z,3.17
2019-03-15T13:04:52.064Z,2.40
2019-03-15T13:07:21.006Z,2.87
2019-03-15T13:09:50.097Z,2.87
2019-03-15T13:12:19.194Z,2.67
2019-03-15T13:14:48.299Z,3.47
2019-03-15T13:17:17.419Z,4.33
2019-03-15T13:19:55.154Z,4.47
2019-03-15T13:22:17.441Z,4.67
2019-03-15T13:24:46.551Z,2.97
2019-03-15T13:27:15.669Z,2.40
2019-03-15T13:29:44.792Z,3.13
2019-03-15T13:32:13.952Z,3.00
2019-03-15T13:34:43.066Z,3.00
2019-03-15T13:37:12.233Z,3.47
2019-03-15T13:39:41.393Z,2.30
2019-03-15T13:42:10.494Z,2.60
2019-03-15T13:44:39.516Z,1.97
2019-03-15T13:47:08.668Z,2.63
2019-03-15T13:49:37.763Z,3.23
2019-03-15T13:52:06.860Z,2.83
2019-03-15T13:54:35.950Z,1.83
2019-03-15T13:57:05.065Z,3.93
2019-03-15T13:59:34.143Z,2.47
2019-03-15T14:02:03.304Z,2.30
2019-03-15T14:04:32.487Z,2.60
2019-03-15T14:07:01.583Z,2.73
2019-03-15T14:09:30.913Z,3.37
2019-03-15T14:12:00.053Z,3.40
2019-03-15T14:14:29.238Z,3.47
2019-03-15T14:16:58.345Z,6.30
2019-03-15T14:19:27.375Z,4.57
2019-03-15T14:21:56.517Z,3.97
2019-03-15T14:24:25.569Z,3.93
2019-03-15T14:26:54.770Z,5.00
2019-03-15T14:29:23.870Z,2.87
2019-03-15T14:31:52.963Z,3.97
2019-03-15T14:34:22.046Z,3.57
2019-03-15T14:36:51.323Z,3.57
2019-03-15T14:39:20.465Z,2.83
2019-03-15T14:41:49.674Z,3.20
2019-03-15T14:44:18.888Z,2.60
2019-03-15T14:46:48.044Z,3.07
2019-03-15T14:49:17.144Z,3.90
2019-03-15T14:51:46.291Z,2.57
2019-03-15T14:54:15.316Z,3.33
2019-03-15T14:56:44.558Z,2.87
2019-03-15T14:59:13.645Z,2.70
2019-03-15T15:01:42.765Z,4.70
2019-03-15T15:04:11.902Z,4.43
2019-03-15T15:06:40.984Z,4.57
2019-03-15T15:09:10.128Z,3.30
2019-03-15T15:11:39.221Z,4.23
2019-03-15T15:14:08.342Z,3.27
2019-03-15T15:16:37.455Z,3.10
2019-03-15T15:19:06.620Z,3.93
2019-03-15T15:21:35.822Z,5.10
2019-03-15T15:24:05.027Z,3.03
2019-03-15T15:26:50.440Z,3.47
2019-03-15T15:29:22.029Z,2.90
2019-03-15T15:31:50.386Z,7.63
2019-03-15T15:34:19.538Z,3.50
2019-03-15T15:36:48.655Z,3.00
2019-03-15T15:39:17.752Z,4.60
2019-03-15T15:41:46.844Z,2.60
2019-03-15T15:44:16.044Z,2.70
2019-03-15T15:46:45.168Z,2.60
2019-03-15T15:49:14.276Z,2.50
2019-03-15T15:51:43.460Z,2.57
2019-03-15T15:54:12.597Z,3.10
2019-03-15T15:56:41.678Z,2.97
2019-03-15T15:59:10.868Z,2.57
2019-03-15T16:01:39.975Z,2.60
2019-03-15T16:04:09.104Z,5.07
2019-03-15T16:06:38.542Z,3.90
2019-03-15T16:09:08.270Z,4.00
2019-03-15T16:11:37.394Z,3.20
2019-03-15T16:14:06.553Z,3.37
2019-03-15T16:16:35.651Z,3.33
2019-03-15T16:19:04.861Z,3.77
2019-03-15T16:21:34.072Z,2.70
2019-03-15T16:24:03.218Z,3.33
2019-03-15T16:26:32.290Z,2.90
2019-03-15T16:29:01.428Z,4.47
2019-03-15T16:31:30.543Z,3.63
2019-03-15T16:33:59.693Z,4.10
2019-03-15T16:36:28.724Z,3.23
2019-03-15T16:38:57.832Z,3.27
2019-03-15T16:41:26.907Z,3.03
2019-03-15T16:43:56.036Z,4.00
2019-03-15T16:46:25.124Z,4.13
2019-03-15T16:48:54.228Z,2.73
2019-03-15T16:51:23.277Z,4.00
2019-03-15T16:53:52.377Z,3.27
2019-03-15T16:56:21.445Z,5.27
2019-03-15T16:58:50.615Z,5.40
2019-03-15T17:01:19.881Z,4.10
2019-03-15T17:03:48.971Z,5.50
2019-03-15T17:06:18.051Z,5.50
2019-03-15T17:08:47.146Z,5.87
2019-03-15T17:11:16.228Z,4.90
2019-03-15T17:13:45.360Z,6.80
2019-03-15T17:16:14.599Z,5.87
2019-03-15T17:18:43.777Z,5.60
2019-03-15T17:21:12.982Z,7.73
2019-03-15T17:23:42.086Z,8.33
2019-03-15T17:26:11.249Z,7.27
2019-03-15T17:28:40.352Z,6.83
2019-03-15T17:31:10.413Z,4.97
2019-03-15T17:33:39.624Z,4.70
2019-03-15T17:36:08.696Z,3.90
2019-03-15T17:38:37.839Z,4.73
2019-03-15T17:41:06.931Z,5.27
2019-03-15T17:43:36.038Z,3.90
2019-03-15T17:46:05.159Z,3.80
2019-03-15T17:48:34.355Z,3.27
2019-03-15T17:51:03.456Z,3.17
2019-03-15T17:53:32.546Z,3.10
2019-03-15T17:56:01.612Z,3.63
2019-03-15T17:58:30.713Z,3.20
2019-03-15T18:00:59.912Z,3.13
2019-03-15T18:03:29.032Z,4.50
2019-03-15T18:05:58.137Z,2.97
2019-03-15T18:08:27.184Z,3.23
2019-03-15T18:10:56.319Z,3.33
2019-03-15T18:13:25.486Z,3.20
2019-03-15T18:15:54.560Z,3.27
2019-03-15T18:18:23.667Z,3.03
2019-03-15T18:20:52.751Z,3.40
2019-03-15T18:23:21.842Z,3.67
2019-03-15T18:25:52.603Z,4.50
2019-03-15T18:28:21.713Z,4.03
2019-03-15T18:30:50.729Z,4.27
2019-03-15T18:33:19.811Z,3.07
2019-03-15T18:35:48.934Z,3.27
2019-03-15T18:38:18.065Z,3.37
2019-03-15T18:40:47.197Z,2.87
2019-03-15T18:43:16.283Z,2.93
2019-03-15T18:45:45.396Z,3.40
2019-03-15T18:48:14.523Z,3.77
2019-03-15T18:50:43.639Z,4.03
2019-03-15T18:53:12.714Z,3.20
2019-03-15T18:55:41.824Z,3.57
2019-03-15T18:58:10.949Z,3.80
2019-03-15T19:00:40.095Z,4.60
2019-03-15T19:03:09.170Z,4.07
2019-03-15T19:05:38.279Z,4.60
2019-03-15T19:08:07.369Z,4.20
2019-03-15T19:10:38.672Z,4.83
2019-03-15T19:13:07.274Z,4.70
2019-03-15T19:15:36.408Z,4.53
2019-03-15T19:18:05.553Z,5.17
2019-03-15T19:20:34.684Z,4.40
2019-03-15T19:23:03.854Z,7.20
2019-03-15T19:25:32.966Z,5.73
2019-03-15T19:28:02.058Z,4.83
2019-03-15T19:30:31.201Z,4.40
2019-03-15T19:33:00.302Z,4.57
2019-03-15T19:35:29.427Z,4.40
2019-03-15T19:37:58.503Z,5.40
2019-03-15T19:40:27.630Z,4.50
2019-03-15T19:42:57.182Z,6.00
2019-03-15T19:45:26.380Z,5.00
2019-03-15T19:47:55.458Z,5.23
2019-03-15T19:50:24.655Z,5.53
2019-03-15T19:52:53.816Z,4.67
2019-03-15T19:55:22.919Z,5.47
2019-03-15T19:57:52.016Z,4.60
2019-03-15T20:00:21.271Z,3.87
2019-03-15T20:02:50.412Z,3.63
2019-03-15T20:05:19.526Z,4.63
2019-03-15T20:07:48.754Z,3.83
2019-03-15T20:10:18.088Z,3.80
2019-03-15T20:12:47.234Z,3.60
2019-03-15T20:15:16.721Z,3.10
2019-03-15T20:17:45.802Z,3.53
2019-03-15T20:20:14.935Z,3.17
2019-03-15T20:22:44.033Z,3.83
2019-03-15T20:25:13.294Z,4.63
2019-03-15T20:27:42.415Z,3.33
2019-03-15T20:30:21.166Z,3.60
2019-03-15T20:32:44.907Z,3.67
2019-03-15T20:35:14.074Z,3.43
2019-03-15T20:37:43.193Z,3.97
2019-03-15T20:40:12.344Z,4.10
2019-03-15T20:42:41.471Z,4.30
2019-03-15T20:45:11.926Z,4.73
2019-03-15T20:47:40.992Z,4.40
2019-03-15T20:50:10.952Z,5.10
2019-03-15T20:52:40.022Z,5.07
2019-03-15T20:55:09.235Z,5.00
2019-03-15T20:57:38.309Z,5.47
2019-03-15T21:00:08.634Z,5.43
2019-03-15T21:02:37.719Z,5.17
2019-03-15T21:05:08.160Z,5.67
2019-03-15T21:07:37.387Z,5.47
2019-03-15T21:10:06.845Z,6.27
2019-03-15T21:12:35.950Z,5.40
2019-03-15T21:15:06.149Z,5.47
2019-03-15T21:17:35.252Z,5.03
2019-03-15T21:20:06.387Z,6.23
2019-03-15T21:22:35.191Z,6.80
2019-03-15T21:25:04.328Z,5.07
2019-03-15T21:27:33.455Z,4.93
2019-03-15T21:30:02.544Z,5.93
2019-03-15T21:32:31.646Z,6.60
2019-03-15T21:35:00.781Z,4.80
2019-03-15T21:37:29.952Z,5.83
2019-03-15T21:39:59.048Z,5.13
2019-03-15T21:42:28.125Z,7.63
2019-03-15T21:44:57.270Z,6.57
2019-03-15T21:47:26.420Z,7.10
2019-03-15T21:49:55.496Z,6.90
2019-03-15T21:52:24.597Z,4.83
2019-03-15T21:54:53.695Z,4.47
2019-03-15T21:57:22.819Z,6.70
2019-03-15T21:59:51.986Z,7.07
2019-03-15T22:02:21.126Z,5.40
2019-03-15T22:04:50.217Z,5.43
2019-03-15T22:07:19.319Z,5.27
2019-03-15T22:09:48.394Z,5.47
2019-03-15T22:12:17.516Z,5.27
2019-03-15T22:14:46.596Z,8.13
2019-03-15T22:17:15.712Z,6.20
2019-03-15T22:19:44.814Z,5.20
2019-03-15T22:22:13.935Z,8.60
2019-03-15T22:24:43.018Z,7.10
2019-03-15T22:27:12.112Z,5.70
2019-03-15T22:29:52.940Z,6.87
2019-03-15T22:32:11.992Z,6.70
2019-03-15T22:34:41.162Z,8.53
2019-03-15T22:37:10.254Z,6.80
2019-03-15T22:39:39.318Z,6.13
2019-03-15T22:42:08.444Z,8.00
2019-03-15T22:44:37.487Z,7.40
2019-03-15T22:47:06.584Z,5.80
2019-03-15T22:49:35.654Z,6.80
2019-03-15T22:52:04.760Z,6.63
2019-03-15T22:54:33.912Z,6.90
2019-03-15T22:57:03.022Z,5.87
2019-03-15T22:59:32.054Z,7.80
2019-03-15T23:02:01.269Z,6.50
2019-03-15T23:04:30.393Z,6.00
2019-03-15T23:06:59.465Z,6.47
2019-03-15T23:09:28.571Z,7.80
2019-03-15T23:11:57.666Z,4.90
2019-03-15T23:14:26.789Z,7.03
2019-03-15T23:16:55.914Z,5.40
2019-03-15T23:19:25.001Z,7.97
2019-03-15T23:21:54.131Z,6.83
2019-03-15T23:24:23.221Z,6.03
2019-03-15T23:26:52.307Z,4.43
2019-03-15T23:29:21.385Z,4.80
2019-03-15T23:31:51.346Z,5.17
2019-03-15T23:34:20.439Z,7.50
2019-03-15T23:36:49.531Z,6.07
2019-03-15T23:39:18.646Z,5.40
2019-03-15T23:41:47.750Z,6.67
2019-03-15T23:44:16.823Z,7.97
2019-03-15T23:46:45.960Z,6.87
2019-03-15T23:49:15.027Z,9.97
2019-03-15T23:51:44.126Z,6.63
2019-03-15T23:54:13.194Z,5.53
2019-03-15T23:56:42.289Z,6.80
2019-03-15T23:59:11.301Z,4.50
